Terminal Aerodrome Forecast
Issued by NWS

Home | Current Version | Previous Version | Text Only | Print | Product List | Glossary On
Versions: 1 2 3 4 5 6 7 8 9 10 11 12 13 14 15 16 17 18 19 20 21
345
FTUS45 KFGZ 251454 AAA
TAFSEZ
TAF AMD
KSEZ 251454Z 2515/2612 VRB03KT P6SM SCT035
      TEMPO 2515/2517 BKN027
     FM251800 20008KT P6SM BKN050
      TEMPO 2521/2601 VRB10G20KT 5SM -TSRA BKN040CB
     FM260400 04008KT P6SM SCT250=

USA.gov is the U.S. government's official web portal to all federal, state and local government web resources and services.